createdAt,value
2023-02-11T00:02:14.148Z,6.26
2023-02-11T00:04:42.124Z,6.24
2023-02-11T00:07:09.741Z,6.24
2023-02-11T00:09:38.505Z,6.27
2023-02-11T00:12:08.448Z,6.26
2023-02-11T00:14:36.059Z,6.25
2023-02-11T00:17:03.912Z,6.21
2023-02-11T00:19:33.862Z,6.19
2023-02-11T00:22:01.552Z,6.20
2023-02-11T00:24:30.082Z,6.21
2023-02-11T00:26:57.706Z,6.23
2023-02-11T00:29:27.814Z,6.17
2023-02-11T00:31:55.817Z,6.20
2023-02-11T00:34:23.499Z,6.21
2023-02-11T00:36:52.444Z,6.26
2023-02-11T00:39:20.046Z,6.23
2023-02-11T00:41:47.667Z,6.19
2023-02-11T00:44:15.365Z,6.19
2023-02-11T00:46:43.183Z,6.22
2023-02-11T00:49:11.312Z,6.25
2023-02-11T00:51:39.096Z,6.24
2023-02-11T00:54:08.819Z,6.25
2023-02-11T00:56:36.944Z,6.19
2023-02-11T00:59:04.732Z,6.10
2023-02-11T01:01:32.366Z,6.12
2023-02-11T01:04:00.570Z,6.20
2023-02-11T01:06:28.217Z,6.21
2023-02-11T01:08:55.814Z,6.24
2023-02-11T01:11:24.910Z,6.22
2023-02-11T01:13:52.672Z,6.18
2023-02-11T01:16:21.692Z,6.28
2023-02-11T01:18:49.698Z,6.29
2023-02-11T01:21:17.752Z,6.17
2023-02-11T01:23:45.491Z,6.25
2023-02-11T01:26:13.201Z,6.27
2023-02-11T01:28:43.257Z,6.27
2023-02-11T01:31:11.268Z,6.23
2023-02-11T01:33:39.007Z,6.20
2023-02-11T01:36:07.774Z,6.23
2023-02-11T01:38:36.309Z,6.19
2023-02-11T01:41:06.215Z,6.20
2023-02-11T01:43:37.041Z,6.20
2023-02-11T01:46:25.591Z,6.12
2023-02-11T01:48:58.658Z,6.16
2023-02-11T01:51:32.503Z,6.08
2023-02-11T01:54:19.347Z,6.15
2023-02-11T01:57:10.376Z,6.07
2023-02-11T01:59:43.315Z,6.02
2023-02-11T02:02:16.806Z,6.07
2023-02-11T02:04:53.166Z,6.03
2023-02-11T02:07:29.350Z,6.08
2023-02-11T02:10:01.330Z,6.09
2023-02-11T02:12:29.023Z,6.12
2023-02-11T02:15:19.958Z,6.17
2023-02-11T02:18:00.299Z,6.13
2023-02-11T02:20:53.699Z,6.17
2023-02-11T02:23:33.292Z,6.21
2023-02-11T02:26:35.018Z,6.06
2023-02-11T02:29:20.574Z,6.09
2023-02-11T02:32:14.825Z,6.10
2023-02-11T02:34:52.756Z,6.14
2023-02-11T02:37:28.216Z,6.16
2023-02-11T02:39:57.967Z,6.25
2023-02-11T02:42:26.100Z,6.16
2023-02-11T02:44:56.368Z,6.20
2023-02-11T02:47:24.130Z,6.19
2023-02-11T02:49:53.097Z,6.21
2023-02-11T02:52:35.849Z,6.17
2023-02-11T02:55:11.566Z,6.23
2023-02-11T02:57:50.782Z,6.22
2023-02-11T03:00:28.345Z,6.22
2023-02-11T03:03:15.872Z,6.30
2023-02-11T03:05:51.415Z,6.30
2023-02-11T03:08:29.878Z,6.26
2023-02-11T03:10:58.660Z,6.26
2023-02-11T03:13:34.929Z,6.28
2023-02-11T03:16:08.061Z,6.30
2023-02-11T03:18:39.168Z,6.26
2023-02-11T03:21:12.028Z,6.32
2023-02-11T03:23:45.561Z,6.34
2023-02-11T03:26:17.086Z,6.36
2023-02-11T03:28:52.510Z,6.40
2023-02-11T03:31:28.176Z,6.39
2023-02-11T03:34:00.453Z,6.39
2023-02-11T03:36:36.890Z,6.38
2023-02-11T03:39:07.256Z,6.33
2023-02-11T03:41:36.480Z,6.33
2023-02-11T03:44:07.094Z,6.39
2023-02-11T03:46:39.998Z,6.43
2023-02-11T03:49:13.052Z,6.43
2023-02-11T03:51:42.249Z,6.40
2023-02-11T03:54:14.449Z,6.38
2023-02-11T03:56:47.787Z,6.42
2023-02-11T03:59:16.731Z,6.43
2023-02-11T04:01:44.538Z,6.45
2023-02-11T04:04:12.300Z,6.49
2023-02-11T04:06:40.204Z,6.49
2023-02-11T04:09:09.245Z,6.53
2023-02-11T04:11:37.098Z,6.40
2023-02-11T04:14:05.062Z,6.43
2023-02-11T04:16:32.718Z,6.42
2023-02-11T04:19:01.500Z,6.42
2023-02-11T04:21:29.261Z,6.44
2023-02-11T04:23:56.928Z,6.48
2023-02-11T04:26:26.102Z,6.47
2023-02-11T04:28:53.704Z,6.43
2023-02-11T04:31:22.550Z,6.43
2023-02-11T04:33:50.291Z,6.43
2023-02-11T04:36:17.956Z,6.36
2023-02-11T04:38:45.888Z,6.40
2023-02-11T04:41:13.528Z,6.40
2023-02-11T04:43:42.612Z,6.43
2023-02-11T04:46:11.157Z,6.41
2023-02-11T04:48:38.891Z,6.43
2023-02-11T04:51:09.323Z,6.49
2023-02-11T04:53:39.126Z,6.53
2023-02-11T04:56:07.118Z,6.50
2023-02-11T04:58:34.751Z,6.47
2023-02-11T05:01:08.117Z,6.44
2023-02-11T05:03:37.781Z,6.42
2023-02-11T05:06:08.277Z,6.42
2023-02-11T05:08:35.925Z,6.50
2023-02-11T05:11:03.800Z,6.51
2023-02-11T05:13:32.266Z,6.52
2023-02-11T05:15:59.973Z,6.57
2023-02-11T05:18:29.110Z,6.54
2023-02-11T05:20:57.367Z,6.52
2023-02-11T05:23:25.005Z,6.57
2023-02-11T05:25:52.855Z,6.54
2023-02-11T05:28:20.651Z,6.52
2023-02-11T05:30:48.319Z,6.58
2023-02-11T05:33:18.403Z,6.59
2023-02-11T05:35:47.403Z,6.57
2023-02-11T05:38:17.719Z,6.55
2023-02-11T05:40:45.405Z,6.56
2023-02-11T05:43:13.314Z,6.60
2023-02-11T05:45:41.189Z,6.59
2023-02-11T05:48:11.169Z,6.60
2023-02-11T05:50:38.807Z,6.55
2023-02-11T05:53:08.723Z,6.55
2023-02-11T05:55:36.681Z,6.56
2023-02-11T05:58:04.889Z,6.58
2023-02-11T06:00:32.548Z,6.56
2023-02-11T06:03:00.422Z,6.56
2023-02-11T06:05:28.690Z,6.61
2023-02-11T06:07:56.453Z,6.64
2023-02-11T06:10:25.418Z,6.64
2023-02-11T06:12:55.129Z,6.63
2023-02-11T06:15:22.893Z,6.65
2023-02-11T06:17:50.534Z,6.62
2023-02-11T06:20:18.240Z,6.59
2023-02-11T06:22:46.902Z,6.65
2023-02-11T06:25:15.683Z,6.69
2023-02-11T06:27:44.969Z,6.71
2023-02-11T06:30:13.425Z,6.70
2023-02-11T06:32:45.468Z,6.66
2023-02-11T06:35:14.392Z,6.70
2023-02-11T06:37:42.598Z,6.74
2023-02-11T06:40:11.376Z,6.65
2023-02-11T06:42:39.533Z,6.73
2023-02-11T06:45:10.818Z,6.72
2023-02-11T06:47:38.483Z,6.71
2023-02-11T06:50:08.030Z,6.64
2023-02-11T06:52:35.750Z,6.67
2023-02-11T06:55:03.545Z,6.68
2023-02-11T06:57:31.739Z,6.71
2023-02-11T06:59:59.404Z,6.71
2023-02-11T07:02:28.369Z,6.72
2023-02-11T07:04:56.084Z,6.75
2023-02-11T07:07:24.121Z,6.79
2023-02-11T07:09:52.046Z,6.79
2023-02-11T07:12:19.935Z,6.80
2023-02-11T07:14:47.568Z,6.78
2023-02-11T07:17:15.475Z,6.78
2023-02-11T07:19:44.504Z,6.77
2023-02-11T07:22:12.452Z,6.69
2023-02-11T07:24:40.485Z,6.72
2023-02-11T07:27:08.217Z,6.69
2023-02-11T07:29:38.099Z,6.67
2023-02-11T07:32:06.602Z,6.69
2023-02-11T07:34:35.420Z,6.71
2023-02-11T07:37:04.698Z,6.72
2023-02-11T07:39:32.630Z,6.67
2023-02-11T07:42:02.449Z,6.75
2023-02-11T07:44:30.387Z,6.73
2023-02-11T07:46:58.206Z,6.68
2023-02-11T07:49:25.986Z,6.71
2023-02-11T07:51:53.731Z,6.69
2023-02-11T07:54:23.299Z,6.75
2023-02-11T07:56:53.103Z,6.84
2023-02-11T07:59:21.991Z,6.89
2023-02-11T08:01:51.413Z,6.83
2023-02-11T08:04:19.272Z,6.79
2023-02-11T08:06:46.957Z,6.86
2023-02-11T08:09:17.547Z,6.90
2023-02-11T08:11:46.538Z,6.77
2023-02-11T08:14:14.205Z,6.79
2023-02-11T08:16:42.684Z,6.81
2023-02-11T08:19:13.563Z,6.84
2023-02-11T08:21:41.843Z,6.89
2023-02-11T08:24:09.594Z,6.90
2023-02-11T08:26:37.644Z,6.94
2023-02-11T08:29:10.994Z,6.95
2023-02-11T08:31:41.352Z,6.87
2023-02-11T08:34:10.663Z,6.86
2023-02-11T08:36:40.069Z,6.86
2023-02-11T08:39:19.191Z,6.86
2023-02-11T08:41:48.666Z,6.88
2023-02-11T08:44:17.833Z,6.88
2023-02-11T08:46:45.559Z,6.84
2023-02-11T08:49:13.287Z,6.86
2023-02-11T08:51:41.090Z,6.87
2023-02-11T08:54:09.813Z,6.83
2023-02-11T08:56:38.184Z,6.81
2023-02-11T08:59:06.289Z,6.89
2023-02-11T09:01:36.460Z,6.98
2023-02-11T09:04:04.263Z,6.99
2023-02-11T09:06:33.057Z,6.97
2023-02-11T09:09:00.824Z,7.00
2023-02-11T09:11:31.551Z,7.12
2023-02-11T09:14:00.387Z,7.19
2023-02-11T09:16:30.274Z,7.14
2023-02-11T09:19:00.782Z,7.03
2023-02-11T09:21:29.640Z,7.04
2023-02-11T09:23:57.737Z,6.96
2023-02-11T09:26:27.867Z,6.91
2023-02-11T09:28:57.589Z,6.94
2023-02-11T09:31:28.126Z,6.89
2023-02-11T09:33:58.125Z,6.93
2023-02-11T09:36:30.323Z,6.97
2023-02-11T09:39:00.172Z,6.97
2023-02-11T09:41:42.321Z,6.98
2023-02-11T09:44:19.354Z,7.00
2023-02-11T09:46:54.428Z,7.01
2023-02-11T09:49:28.271Z,7.08
2023-02-11T09:52:03.871Z,7.08
2023-02-11T09:54:38.640Z,7.15
2023-02-11T09:57:10.535Z,7.10
2023-02-11T09:59:42.258Z,7.13
2023-02-11T10:02:18.066Z,7.13
2023-02-11T10:05:00.263Z,7.13
2023-02-11T10:07:38.698Z,7.12
2023-02-11T10:10:16.553Z,7.09
2023-02-11T10:13:03.851Z,7.10
2023-02-11T10:15:44.150Z,7.15
2023-02-11T10:18:32.012Z,7.17
2023-02-11T10:21:13.929Z,7.27
2023-02-11T10:23:47.885Z,7.17
2023-02-11T10:26:19.751Z,7.16
2023-02-11T10:28:55.328Z,7.23
2023-02-11T10:31:28.369Z,7.20
2023-02-11T10:34:01.327Z,7.20
2023-02-11T10:36:35.520Z,7.29
2023-02-11T10:39:17.048Z,7.31
2023-02-11T10:41:49.188Z,7.38
2023-02-11T10:44:28.582Z,7.42
2023-02-11T10:47:01.461Z,7.44
2023-02-11T10:49:40.164Z,7.22
2023-02-11T10:52:25.445Z,7.33
2023-02-11T10:55:04.080Z,7.38
2023-02-11T10:57:35.886Z,7.44
2023-02-11T11:00:20.919Z,7.44
2023-02-11T11:02:56.604Z,7.46
2023-02-11T11:05:30.844Z,7.45
2023-02-11T11:08:00.390Z,7.40
2023-02-11T11:10:43.161Z,7.32
2023-02-11T11:13:28.836Z,7.19
2023-02-11T11:16:24.339Z,7.17
2023-02-11T11:18:54.457Z,7.25
2023-02-11T11:21:26.827Z,7.27
2023-02-11T11:23:59.960Z,7.28
2023-02-11T11:26:40.610Z,7.24
2023-02-11T11:29:14.456Z,7.18
2023-02-11T11:31:49.579Z,7.30
2023-02-11T11:34:24.033Z,7.36
2023-02-11T11:36:51.910Z,7.45
2023-02-11T11:39:23.227Z,7.54
2023-02-11T11:41:59.543Z,7.65
2023-02-11T11:44:30.918Z,7.63
2023-02-11T11:47:18.421Z,7.69
2023-02-11T11:49:51.912Z,7.78
2023-02-11T11:52:27.856Z,7.79
2023-02-11T11:55:01.843Z,7.79
2023-02-11T11:57:32.567Z,7.72
2023-02-11T12:00:00.195Z,7.62
2023-02-11T12:02:58.244Z,7.62
2023-02-11T12:05:28.882Z,7.74
2023-02-11T12:08:09.379Z,7.58
2023-02-11T12:10:49.773Z,7.61
2023-02-11T12:13:31.488Z,7.50
2023-02-11T12:16:09.954Z,7.46
2023-02-11T12:18:52.392Z,7.53
2023-02-11T12:21:30.438Z,7.49
2023-02-11T12:24:17.583Z,7.59
2023-02-11T12:26:48.845Z,7.60
2023-02-11T12:29:28.338Z,7.54
2023-02-11T12:32:08.538Z,7.53
2023-02-11T12:34:47.217Z,7.66
2023-02-11T12:37:33.136Z,7.68
2023-02-11T12:40:10.893Z,7.64
2023-02-11T12:43:08.595Z,7.65
2023-02-11T12:45:50.448Z,7.70
2023-02-11T12:48:35.905Z,7.66
2023-02-11T12:51:12.909Z,7.67
2023-02-11T12:54:00.124Z,7.57
2023-02-11T12:56:36.877Z,7.62
2023-02-11T12:59:08.987Z,7.62
2023-02-11T13:01:41.655Z,7.62
2023-02-11T13:04:16.823Z,7.65
2023-02-11T13:06:47.697Z,7.67
2023-02-11T13:09:21.914Z,7.66
2023-02-11T13:11:52.715Z,7.63
2023-02-11T13:14:27.737Z,7.57
2023-02-11T13:16:58.413Z,7.64
2023-02-11T13:19:34.201Z,7.62
2023-02-11T13:22:09.262Z,7.64
2023-02-11T13:24:44.680Z,7.72
2023-02-11T13:27:25.748Z,7.69
2023-02-11T13:30:24.115Z,7.74
2023-02-11T13:33:18.194Z,7.81
2023-02-11T13:35:51.068Z,7.75
2023-02-11T13:38:22.392Z,7.78
2023-02-11T13:41:03.894Z,7.82
2023-02-11T13:43:33.659Z,7.87
2023-02-11T13:46:03.651Z,7.79
2023-02-11T13:48:36.712Z,7.81
2023-02-11T13:51:07.598Z,7.85
2023-02-11T13:53:47.505Z,7.84
2023-02-11T13:56:30.565Z,7.97
2023-02-11T13:59:02.169Z,8.01
2023-02-11T14:01:41.707Z,8.07
2023-02-11T14:04:53.478Z,7.97
2023-02-11T14:07:47.613Z,7.90
2023-02-11T14:10:50.840Z,7.90
2023-02-11T14:13:24.381Z,7.97
2023-02-11T14:16:04.969Z,7.92
2023-02-11T14:19:00.766Z,7.92
2023-02-11T14:21:36.382Z,7.92
2023-02-11T14:24:46.261Z,7.92
2023-02-11T14:27:21.234Z,7.96
2023-02-11T14:30:02.487Z,7.92
2023-02-11T14:32:42.856Z,7.92
2023-02-11T14:35:18.203Z,7.90
2023-02-11T14:37:54.372Z,7.95
2023-02-11T14:40:30.261Z,7.95
2023-02-11T14:43:02.733Z,7.94
2023-02-11T14:45:31.484Z,7.98
2023-02-11T14:48:04.174Z,8.05
2023-02-11T14:50:39.788Z,7.98
2023-02-11T14:53:15.744Z,8.04
2023-02-11T14:55:46.605Z,8.04
2023-02-11T14:58:17.812Z,8.01
2023-02-11T15:00:58.383Z,7.98
2023-02-11T15:03:37.380Z,7.93
2023-02-11T15:06:08.794Z,7.98
2023-02-11T15:08:42.982Z,7.99
2023-02-11T15:11:14.522Z,8.05
2023-02-11T15:13:47.359Z,8.04
2023-02-11T15:16:18.435Z,8.03
2023-02-11T15:18:50.068Z,8.10
2023-02-11T15:21:22.705Z,8.10
2023-02-11T15:24:01.786Z,8.08
2023-02-11T15:26:29.982Z,8.13
2023-02-11T15:28:57.700Z,8.04
2023-02-11T15:31:27.265Z,8.06
2023-02-11T15:33:55.451Z,8.08
2023-02-11T15:36:28.497Z,8.14
2023-02-11T15:39:31.357Z,8.20
2023-02-11T15:42:17.420Z,8.18
2023-02-11T15:44:45.394Z,8.16
2023-02-11T15:47:14.629Z,8.20
2023-02-11T15:49:46.145Z,8.23
2023-02-11T15:52:15.281Z,8.26
2023-02-11T15:54:47.351Z,8.25
2023-02-11T15:57:16.319Z,8.25
2023-02-11T15:59:48.172Z,8.26
2023-02-11T16:02:18.728Z,8.24
2023-02-11T16:04:52.149Z,8.24
2023-02-11T16:07:39.815Z,8.27
2023-02-11T16:10:23.460Z,8.19
2023-02-11T16:12:58.028Z,8.20
2023-02-11T16:15:34.059Z,8.20
2023-02-11T16:18:03.457Z,8.15
2023-02-11T16:20:31.691Z,8.16
2023-02-11T16:22:59.571Z,8.14
2023-02-11T16:25:28.642Z,8.15
2023-02-11T16:27:56.470Z,8.11
2023-02-11T16:30:30.512Z,8.13
2023-02-11T16:32:58.410Z,8.04
2023-02-11T16:35:26.528Z,8.03
2023-02-11T16:37:54.826Z,8.07
2023-02-11T16:40:26.082Z,7.98
2023-02-11T16:42:55.861Z,8.07
2023-02-11T16:45:23.985Z,8.07
2023-02-11T16:47:51.854Z,8.05
2023-02-11T16:50:25.572Z,8.05
2023-02-11T16:52:53.409Z,8.14
2023-02-11T16:55:22.274Z,8.10
2023-02-11T16:57:50.997Z,8.09
2023-02-11T17:00:23.447Z,8.04
2023-02-11T17:02:51.170Z,8.08
2023-02-11T17:05:22.839Z,8.13
2023-02-11T17:07:50.731Z,8.10
2023-02-11T17:10:20.278Z,8.14
2023-02-11T17:12:48.716Z,8.13
2023-02-11T17:15:16.561Z,8.15
2023-02-11T17:17:45.803Z,8.17
2023-02-11T17:20:15.238Z,8.16
2023-02-11T17:22:45.272Z,8.16
2023-02-11T17:25:13.391Z,8.14
2023-02-11T17:27:41.587Z,8.19
2023-02-11T17:30:10.366Z,8.26
2023-02-11T17:32:38.202Z,8.25
2023-02-11T17:35:08.049Z,8.26
2023-02-11T17:37:35.735Z,8.28
2023-02-11T17:40:03.334Z,8.23
2023-02-11T17:42:31.227Z,8.12
2023-02-11T17:44:58.883Z,8.08
2023-02-11T17:47:26.849Z,8.15
2023-02-11T17:49:54.570Z,8.21
2023-02-11T17:52:24.191Z,8.23
2023-02-11T17:54:51.947Z,8.26
2023-02-11T17:57:22.316Z,8.25
2023-02-11T17:59:50.269Z,8.23
2023-02-11T18:02:18.534Z,8.24
2023-02-11T18:04:46.738Z,8.29
2023-02-11T18:07:14.504Z,8.36
2023-02-11T18:09:44.801Z,8.36
2023-02-11T18:12:12.494Z,8.39
2023-02-11T18:14:44.546Z,8.39
2023-02-11T18:17:12.603Z,8.38
2023-02-11T18:19:40.664Z,8.37
2023-02-11T18:22:09.629Z,8.35
2023-02-11T18:24:37.298Z,8.39
2023-02-11T18:27:08.740Z,8.44
2023-02-11T18:29:36.866Z,8.47
2023-02-11T18:32:04.813Z,8.46
2023-02-11T18:34:32.952Z,8.40
2023-02-11T18:37:01.014Z,8.44
2023-02-11T18:39:30.488Z,8.42
2023-02-11T18:41:58.864Z,8.41
2023-02-11T18:44:28.322Z,8.40
2023-02-11T18:46:57.184Z,8.41
2023-02-11T18:49:24.908Z,8.41
2023-02-11T18:51:53.170Z,8.43
2023-02-11T18:54:23.793Z,8.46
2023-02-11T18:56:51.730Z,8.55
2023-02-11T18:59:20.182Z,8.65
2023-02-11T19:01:49.387Z,8.66
2023-02-11T19:04:20.253Z,8.70
2023-02-11T19:06:49.644Z,8.75
2023-02-11T19:09:19.702Z,8.75
2023-02-11T19:11:54.124Z,8.70
2023-02-11T19:14:23.910Z,8.69
2023-02-11T19:16:55.618Z,8.72
2023-02-11T19:19:28.760Z,8.76
2023-02-11T19:21:57.382Z,8.73
2023-02-11T19:24:25.522Z,8.72
2023-02-11T19:26:56.934Z,8.66
2023-02-11T19:29:25.656Z,8.70
2023-02-11T19:31:57.681Z,8.73
2023-02-11T19:34:28.216Z,8.65
2023-02-11T19:36:59.560Z,8.64
2023-02-11T19:39:28.733Z,8.61
2023-02-11T19:41:57.502Z,8.56
2023-02-11T19:44:27.182Z,8.54
2023-02-11T19:46:57.445Z,8.50
2023-02-11T19:49:32.062Z,8.48
2023-02-11T19:52:02.596Z,8.47
2023-02-11T19:54:33.866Z,8.49
2023-02-11T19:57:03.049Z,8.44
2023-02-11T19:59:32.796Z,8.43
2023-02-11T20:02:01.437Z,8.50
2023-02-11T20:04:38.054Z,8.46
2023-02-11T20:07:06.022Z,8.48
2023-02-11T20:09:33.913Z,8.41
2023-02-11T20:12:01.894Z,8.45
2023-02-11T20:14:31.461Z,8.43
2023-02-11T20:16:59.587Z,8.42
2023-02-11T20:19:38.169Z,8.40
2023-02-11T20:22:07.808Z,8.38
2023-02-11T20:24:38.460Z,8.33
2023-02-11T20:27:08.292Z,8.33
2023-02-11T20:29:36.652Z,8.37
2023-02-11T20:32:05.207Z,8.39
2023-02-11T20:34:35.940Z,8.31
2023-02-11T20:37:06.072Z,8.32
2023-02-11T20:39:37.190Z,8.31
2023-02-11T20:42:06.442Z,8.30
2023-02-11T20:44:36.898Z,8.26
2023-02-11T20:47:07.494Z,8.26
2023-02-11T20:49:35.741Z,8.28
2023-02-11T20:52:08.221Z,8.27
2023-02-11T20:54:40.753Z,8.28
2023-02-11T20:57:11.175Z,8.29
2023-02-11T20:59:41.101Z,8.29
2023-02-11T21:02:12.412Z,8.31
2023-02-11T21:04:40.787Z,8.28
2023-02-11T21:07:08.582Z,8.32
2023-02-11T21:09:36.318Z,8.34
2023-02-11T21:12:06.644Z,8.31
2023-02-11T21:14:34.641Z,8.31
2023-02-11T21:17:02.416Z,8.33
2023-02-11T21:19:30.169Z,8.35
2023-02-11T21:22:00.748Z,8.37
2023-02-11T21:24:30.710Z,8.33
2023-02-11T21:26:59.839Z,8.33
2023-02-11T21:29:30.504Z,8.39
2023-02-11T21:31:59.105Z,8.32
2023-02-11T21:34:26.835Z,8.26
2023-02-11T21:36:54.587Z,8.32
2023-02-11T21:39:23.957Z,8.36
2023-02-11T21:41:52.151Z,8.38
2023-02-11T21:44:20.084Z,8.37
2023-02-11T21:46:51.815Z,8.36
2023-02-11T21:49:20.163Z,8.39
2023-02-11T21:51:47.994Z,8.33
2023-02-11T21:54:15.849Z,8.25
2023-02-11T21:56:48.477Z,8.22
2023-02-11T21:59:18.121Z,8.27
2023-02-11T22:01:47.068Z,8.24
2023-02-11T22:04:17.028Z,8.26
2023-02-11T22:06:45.217Z,8.22
2023-02-11T22:09:12.900Z,8.21
2023-02-11T22:11:40.753Z,8.22
2023-02-11T22:14:08.856Z,8.25
2023-02-11T22:16:37.289Z,8.26
2023-02-11T22:19:07.333Z,8.26
2023-02-11T22:21:39.750Z,8.26
2023-02-11T22:24:07.978Z,8.24
2023-02-11T22:26:38.424Z,8.28
2023-02-11T22:29:08.799Z,8.29
2023-02-11T22:31:38.984Z,8.23
2023-02-11T22:34:07.137Z,8.24
2023-02-11T22:36:37.517Z,8.28
2023-02-11T22:39:10.331Z,8.33
2023-02-11T22:41:39.246Z,8.31
2023-02-11T22:44:10.444Z,8.35
2023-02-11T22:46:40.263Z,8.36
2023-02-11T22:49:09.822Z,8.39
2023-02-11T22:51:37.663Z,8.32
2023-02-11T22:54:11.353Z,8.27
2023-02-11T22:56:39.054Z,8.30
2023-02-11T22:59:08.975Z,8.35
